sensor_id;sensor_type;location;lat;lon;timestamp;pressure;altitude;pressure_sealevel;temperature;humidity
11114;BME280;5610;52.154;9.198;2023-04-28T00:00:56;100772.94;;;9.68;68.27
11114;BME280;5610;52.154;9.198;2023-04-28T00:03:41;100772.59;;;9.58;68.46
11114;BME280;5610;52.154;9.198;2023-04-28T00:06:28;100767.44;;;9.71;70.61
11114;BME280;5610;52.154;9.198;2023-04-28T00:09:13;100762.06;;;9.73;70.62
11114;BME280;5610;52.154;9.198;2023-04-28T00:11:58;100761.34;;;9.69;69.36
11114;BME280;5610;52.154;9.198;2023-04-28T00:14:45;100765.47;;;9.75;71.36
11114;BME280;5610;52.154;9.198;2023-04-28T00:17:30;100755.59;;;9.77;74.13
11114;BME280;5610;52.154;9.198;2023-04-28T00:20:16;100757.66;;;9.72;71.15
11114;BME280;5610;52.154;9.198;2023-04-28T00:23:02;100757.75;;;9.70;71.10
11114;BME280;5610;52.154;9.198;2023-04-28T00:25:50;100749.94;;;9.67;72.44
11114;BME280;5610;52.154;9.198;2023-04-28T00:28:35;100749.25;;;9.63;72.46
11114;BME280;5610;52.154;9.198;2023-04-28T00:31:20;100734.75;;;9.69;72.75
11114;BME280;5610;52.154;9.198;2023-04-28T00:34:05;100737.31;;;9.71;75.03
11114;BME280;5610;52.154;9.198;2023-04-28T00:36:50;100725.03;;;9.68;73.75
11114;BME280;5610;52.154;9.198;2023-04-28T00:39:37;100725.72;;;9.72;75.52
11114;BME280;5610;52.154;9.198;2023-04-28T00:42:23;100725.38;;;9.78;76.23
11114;BME280;5610;52.154;9.198;2023-04-28T00:45:09;100720.41;;;9.72;73.59
11114;BME280;5610;52.154;9.198;2023-04-28T00:47:54;100722.47;;;9.67;74.29
11114;BME280;5610;52.154;9.198;2023-04-28T00:50:40;100717.56;;;9.75;76.59
11114;BME280;5610;52.154;9.198;2023-04-28T00:53:26;100709.59;;;9.75;75.53
11114;BME280;5610;52.154;9.198;2023-04-28T00:56:13;100705.72;;;9.80;78.45
11114;BME280;5610;52.154;9.198;2023-04-28T00:58:58;100703.38;;;9.90;77.85
11114;BME280;5610;52.154;9.198;2023-04-28T01:01:44;100697.88;;;9.93;80.15
11114;BME280;5610;52.154;9.198;2023-04-28T01:04:30;100697.13;;;9.91;81.25
11114;BME280;5610;52.154;9.198;2023-04-28T01:07:15;100693.41;;;9.94;78.94
11114;BME280;5610;52.154;9.198;2023-04-28T01:10:01;100699.97;;;9.88;77.90
11114;BME280;5610;52.154;9.198;2023-04-28T01:12:50;100688.28;;;9.90;78.12
11114;BME280;5610;52.154;9.198;2023-04-28T01:15:36;100688.09;;;9.94;78.99
11114;BME280;5610;52.154;9.198;2023-04-28T01:18:22;100687.41;;;9.90;78.76
11114;BME280;5610;52.154;9.198;2023-04-28T01:21:07;100679.44;;;9.90;81.27
11114;BME280;5610;52.154;9.198;2023-04-28T01:23:54;100676.78;;;9.90;79.86
11114;BME280;5610;52.154;9.198;2023-04-28T01:26:39;100672.50;;;9.87;79.13
11114;BME280;5610;52.154;9.198;2023-04-28T01:29:25;100667.25;;;9.86;76.75
11114;BME280;5610;52.154;9.198;2023-04-28T01:32:11;100664.16;;;9.78;76.79
11114;BME280;5610;52.154;9.198;2023-04-28T01:34:57;100670.84;;;9.85;75.56
11114;BME280;5610;52.154;9.198;2023-04-28T01:37:42;100670.69;;;9.88;76.33
11114;BME280;5610;52.154;9.198;2023-04-28T01:40:29;100670.69;;;9.88;74.23
11114;BME280;5610;52.154;9.198;2023-04-28T01:43:15;100663.22;;;9.79;74.62
11114;BME280;5610;52.154;9.198;2023-04-28T01:46:00;100661.91;;;9.86;76.88
11114;BME280;5610;52.154;9.198;2023-04-28T01:48:45;100656.44;;;9.89;77.73
11114;BME280;5610;52.154;9.198;2023-04-28T01:51:30;100653.94;;;9.86;77.57
11114;BME280;5610;52.154;9.198;2023-04-28T01:54:16;100655.22;;;9.79;77.49
11114;BME280;5610;52.154;9.198;2023-04-28T01:57:02;100645.44;;;9.79;78.85
11114;BME280;5610;52.154;9.198;2023-04-28T01:59:49;100637.91;;;9.72;78.59
11114;BME280;5610;52.154;9.198;2023-04-28T02:02:35;100641.44;;;9.72;79.88
11114;BME280;5610;52.154;9.198;2023-04-28T02:05:20;100640.41;;;9.75;81.66
11114;BME280;5610;52.154;9.198;2023-04-28T02:08:07;100634.69;;;9.67;80.71
11114;BME280;5610;52.154;9.198;2023-04-28T02:10:53;100628.31;;;9.69;81.29
11114;BME280;5610;52.154;9.198;2023-04-28T02:13:41;100627.66;;;9.66;81.17
11114;BME280;5610;52.154;9.198;2023-04-28T02:16:26;100630.47;;;9.62;79.64
11114;BME280;5610;52.154;9.198;2023-04-28T02:19:11;100635.78;;;9.62;80.66
11114;BME280;5610;52.154;9.198;2023-04-28T02:21:57;100620.59;;;9.64;81.63
11114;BME280;5610;52.154;9.198;2023-04-28T02:24:42;100627.06;;;9.60;81.21
11114;BME280;5610;52.154;9.198;2023-04-28T02:27:27;100616.00;;;9.52;82.70
11114;BME280;5610;52.154;9.198;2023-04-28T02:30:14;100615.75;;;9.41;82.38
11114;BME280;5610;52.154;9.198;2023-04-28T02:32:59;100605.75;;;9.30;83.06
11114;BME280;5610;52.154;9.198;2023-04-28T02:35:44;100608.22;;;9.33;83.53
11114;BME280;5610;52.154;9.198;2023-04-28T02:38:30;100598.00;;;9.26;83.69
11114;BME280;5610;52.154;9.198;2023-04-28T02:41:15;100596.41;;;9.23;81.89
11114;BME280;5610;52.154;9.198;2023-04-28T02:44:00;100595.44;;;9.24;82.44
11114;BME280;5610;52.154;9.198;2023-04-28T02:46:47;100599.47;;;9.31;82.76
11114;BME280;5610;52.154;9.198;2023-04-28T02:49:32;100591.56;;;9.30;82.30
11114;BME280;5610;52.154;9.198;2023-04-28T02:52:18;100598.09;;;9.08;81.79
11114;BME280;5610;52.154;9.198;2023-04-28T02:55:04;100588.06;;;9.14;81.13
11114;BME280;5610;52.154;9.198;2023-04-28T02:57:49;100594.41;;;9.11;81.67
11114;BME280;5610;52.154;9.198;2023-04-28T03:00:35;100596.22;;;9.11;81.16
11114;BME280;5610;52.154;9.198;2023-04-28T03:03:21;100582.31;;;9.05;80.63
11114;BME280;5610;52.154;9.198;2023-04-28T03:06:07;100587.13;;;8.99;81.37
11114;BME280;5610;52.154;9.198;2023-04-28T03:08:52;100578.56;;;9.10;81.66
11114;BME280;5610;52.154;9.198;2023-04-28T03:11:37;100570.75;;;9.06;82.23
11114;BME280;5610;52.154;9.198;2023-04-28T03:14:22;100561.91;;;9.06;84.26
11114;BME280;5610;52.154;9.198;2023-04-28T03:17:08;100560.56;;;8.99;82.92
11114;BME280;5610;52.154;9.198;2023-04-28T03:19:55;100572.28;;;8.95;83.08
11114;BME280;5610;52.154;9.198;2023-04-28T03:22:40;100561.25;;;9.02;83.18
11114;BME280;5610;52.154;9.198;2023-04-28T03:25:25;100558.94;;;8.96;81.28
11114;BME280;5610;52.154;9.198;2023-04-28T03:28:10;100550.53;;;9.04;80.22
11114;BME280;5610;52.154;9.198;2023-04-28T03:30:57;100548.88;;;9.01;81.11
11114;BME280;5610;52.154;9.198;2023-04-28T03:33:42;100548.53;;;9.07;81.06
11114;BME280;5610;52.154;9.198;2023-04-28T03:36:31;100537.03;;;9.07;81.65
11114;BME280;5610;52.154;9.198;2023-04-28T03:39:24;100539.81;;;9.05;80.79
11114;BME280;5610;52.154;9.198;2023-04-28T03:42:10;100540.91;;;9.17;82.76
11114;BME280;5610;52.154;9.198;2023-04-28T03:45:23;100534.56;;;9.20;79.79
11114;BME280;5610;52.154;9.198;2023-04-28T03:48:09;100529.75;;;9.26;80.19
11114;BME280;5610;52.154;9.198;2023-04-28T03:50:54;100521.13;;;9.37;80.34
11114;BME280;5610;52.154;9.198;2023-04-28T03:53:42;100521.84;;;9.25;80.67
11114;BME280;5610;52.154;9.198;2023-04-28T03:56:27;100510.69;;;9.34;79.94
11114;BME280;5610;52.154;9.198;2023-04-28T03:59:12;100521.84;;;9.25;78.77
11114;BME280;5610;52.154;9.198;2023-04-28T04:01:58;100514.03;;;9.38;81.80
11114;BME280;5610;52.154;9.198;2023-04-28T04:04:43;100522.41;;;9.46;82.09
11114;BME280;5610;52.154;9.198;2023-04-28T04:07:28;100520.75;;;9.43;82.76
11114;BME280;5610;52.154;9.198;2023-04-28T04:10:15;100512.53;;;9.48;82.30
11114;BME280;5610;52.154;9.198;2023-04-28T04:13:01;100517.94;;;9.46;79.99
11114;BME280;5610;52.154;9.198;2023-04-28T04:15:47;100510.81;;;9.47;81.19
11114;BME280;5610;52.154;9.198;2023-04-28T04:18:33;100509.19;;;9.44;84.71
11114;BME280;5610;52.154;9.198;2023-04-28T04:21:37;100514.78;;;9.40;83.59
11114;BME280;5610;52.154;9.198;2023-04-28T04:24:22;100520.09;;;9.40;84.75
11114;BME280;5610;52.154;9.198;2023-04-28T04:27:09;100516.69;;;9.22;86.36
11114;BME280;5610;52.154;9.198;2023-04-28T04:29:57;100509.06;;;9.31;86.39
11114;BME280;5610;52.154;9.198;2023-04-28T04:32:44;100506.63;;;9.43;84.96
11114;BME280;5610;52.154;9.198;2023-04-28T04:35:29;100498.19;;;9.50;85.26
11114;BME280;5610;52.154;9.198;2023-04-28T04:38:15;100499.09;;;9.35;85.70
11114;BME280;5610;52.154;9.198;2023-04-28T04:41:00;100493.16;;;9.46;84.48
11114;BME280;5610;52.154;9.198;2023-04-28T04:43:46;100490.78;;;9.55;83.12
11114;BME280;5610;52.154;9.198;2023-04-28T04:46:32;100486.72;;;9.64;83.54
11114;BME280;5610;52.154;9.198;2023-04-28T04:49:17;100487.09;;;9.72;81.63
11114;BME280;5610;52.154;9.198;2023-04-28T04:52:02;100497.34;;;9.64;79.71
11114;BME280;5610;52.154;9.198;2023-04-28T04:54:49;100503.72;;;9.61;79.29
11114;BME280;5610;52.154;9.198;2023-04-28T04:57:35;100494.56;;;9.81;79.93
11114;BME280;5610;52.154;9.198;2023-04-28T05:00:28;100498.25;;;9.93;80.14
11114;BME280;5610;52.154;9.198;2023-04-28T05:03:14;100488.94;;;10.00;79.27
11114;BME280;5610;52.154;9.198;2023-04-28T05:05:59;100481.38;;;10.08;79.96
11114;BME280;5610;52.154;9.198;2023-04-28T05:08:52;100491.16;;;10.22;79.77
11114;BME280;5610;52.154;9.198;2023-04-28T05:11:39;100481.66;;;10.32;79.55
11114;BME280;5610;52.154;9.198;2023-04-28T05:14:24;100478.22;;;10.44;79.05
11114;BME280;5610;52.154;9.198;2023-04-28T05:17:11;100482.00;;;10.55;80.96
11114;BME280;5610;52.154;9.198;2023-04-28T05:19:58;100477.81;;;10.65;79.75
11114;BME280;5610;52.154;9.198;2023-04-28T05:22:43;100474.44;;;10.76;78.28
11114;BME280;5610;52.154;9.198;2023-04-28T05:25:29;100468.28;;;10.61;77.49
11114;BME280;5610;52.154;9.198;2023-04-28T05:28:14;100465.19;;;10.81;79.27
11114;BME280;5610;52.154;9.198;2023-04-28T05:31:00;100472.06;;;10.98;79.42
11114;BME280;5610;52.154;9.198;2023-04-28T05:33:49;100467.00;;;11.08;77.56
11114;BME280;5610;52.154;9.198;2023-04-28T05:36:34;100467.00;;;11.20;76.96
11114;BME280;5610;52.154;9.198;2023-04-28T05:39:20;100465.16;;;11.35;78.45
11114;BME280;5610;52.154;9.198;2023-04-28T05:42:05;100462.50;;;11.48;78.25
11114;BME280;5610;52.154;9.198;2023-04-28T05:44:52;100470.75;;;11.58;77.56
11114;BME280;5610;52.154;9.198;2023-04-28T05:47:37;100469.66;;;11.60;77.63
11114;BME280;5610;52.154;9.198;2023-04-28T05:50:24;100464.72;;;11.41;78.71
11114;BME280;5610;52.154;9.198;2023-04-28T05:53:10;100459.31;;;11.43;80.23
11114;BME280;5610;52.154;9.198;2023-04-28T05:55:55;100465.84;;;11.64;79.42
11114;BME280;5610;52.154;9.198;2023-04-28T05:58:40;100465.09;;;11.75;77.23
11114;BME280;5610;52.154;9.198;2023-04-28T06:01:27;100464.81;;;11.92;74.66
11114;BME280;5610;52.154;9.198;2023-04-28T06:04:12;100471.94;;;12.04;72.35
11114;BME280;5610;52.154;9.198;2023-04-28T06:06:58;100476.97;;;12.09;69.34
11114;BME280;5610;52.154;9.198;2023-04-28T06:09:44;100470.00;;;12.32;70.50
11114;BME280;5610;52.154;9.198;2023-04-28T06:12:32;100463.53;;;12.47;69.01
11114;BME280;5610;52.154;9.198;2023-04-28T06:15:18;100463.09;;;12.53;66.65
11114;BME280;5610;52.154;9.198;2023-04-28T06:18:03;100468.00;;;12.59;65.16
11114;BME280;5610;52.154;9.198;2023-04-28T06:20:50;100464.00;;;12.78;65.61
11114;BME280;5610;52.154;9.198;2023-04-28T06:23:36;100456.13;;;12.87;65.11
11114;BME280;5610;52.154;9.198;2023-04-28T06:26:23;100450.97;;;12.97;63.28
11114;BME280;5610;52.154;9.198;2023-04-28T06:29:08;100451.00;;;13.08;63.54
11114;BME280;5610;52.154;9.198;2023-04-28T06:31:54;100448.19;;;12.99;61.77
11114;BME280;5610;52.154;9.198;2023-04-28T06:34:40;100445.06;;;13.05;61.66
11114;BME280;5610;52.154;9.198;2023-04-28T06:37:26;100445.50;;;13.23;62.89
11114;BME280;5610;52.154;9.198;2023-04-28T06:40:12;100435.91;;;13.31;62.62
11114;BME280;5610;52.154;9.198;2023-04-28T06:43:03;100427.88;;;13.31;61.63
11114;BME280;5610;52.154;9.198;2023-04-28T06:46:04;100434.06;;;13.56;62.41
11114;BME280;5610;52.154;9.198;2023-04-28T06:48:49;100434.31;;;13.64;60.16
11114;BME280;5610;52.154;9.198;2023-04-28T06:51:34;100428.97;;;13.86;61.12
11114;BME280;5610;52.154;9.198;2023-04-28T06:54:19;100419.38;;;13.84;59.09
11114;BME280;5610;52.154;9.198;2023-04-28T06:57:06;100429.97;;;13.96;59.06
11114;BME280;5610;52.154;9.198;2023-04-28T06:59:52;100422.53;;;14.11;58.78
11114;BME280;5610;52.154;9.198;2023-04-28T07:02:37;100423.03;;;14.05;58.37
11114;BME280;5610;52.154;9.198;2023-04-28T07:05:22;100425.59;;;14.18;58.43
11114;BME280;5610;52.154;9.198;2023-04-28T07:08:07;100428.00;;;14.21;58.50
11114;BME280;5610;52.154;9.198;2023-04-28T07:10:53;100421.44;;;14.47;57.57
11114;BME280;5610;52.154;9.198;2023-04-28T07:13:40;100410.72;;;14.47;57.14
11114;BME280;5610;52.154;9.198;2023-04-28T07:16:25;100406.06;;;14.61;57.17
11114;BME280;5610;52.154;9.198;2023-04-28T07:19:10;100409.31;;;14.75;57.58
11114;BME280;5610;52.154;9.198;2023-04-28T07:21:56;100409.00;;;14.90;57.09
11114;BME280;5610;52.154;9.198;2023-04-28T07:24:41;100404.66;;;14.77;57.11
11114;BME280;5610;52.154;9.198;2023-04-28T07:27:26;100401.88;;;14.68;56.61
11114;BME280;5610;52.154;9.198;2023-04-28T07:30:13;100397.97;;;14.72;56.53
11114;BME280;5610;52.154;9.198;2023-04-28T07:32:59;100400.81;;;14.59;56.97
11114;BME280;5610;52.154;9.198;2023-04-28T07:35:44;100397.25;;;14.70;56.53
11114;BME280;5610;52.154;9.198;2023-04-28T07:38:30;100397.50;;;14.99;55.83
11114;BME280;5610;52.154;9.198;2023-04-28T07:41:15;100388.94;;;15.05;54.75
11114;BME280;5610;52.154;9.198;2023-04-28T07:44:01;100395.63;;;15.10;54.72
11114;BME280;5610;52.154;9.198;2023-04-28T07:46:49;100404.06;;;15.27;54.94
11114;BME280;5610;52.154;9.198;2023-04-28T07:49:34;100407.69;;;15.37;53.89
11114;BME280;5610;52.154;9.198;2023-04-28T07:52:19;100401.66;;;15.24;54.47
11114;BME280;5610;52.154;9.198;2023-04-28T07:55:04;100400.31;;;14.97;56.25
11114;BME280;5610;52.154;9.198;2023-04-28T07:57:50;100397.59;;;15.08;56.36
11114;BME280;5610;52.154;9.198;2023-04-28T08:00:35;100386.06;;;14.97;56.71
11114;BME280;5610;52.154;9.198;2023-04-28T08:03:22;100375.75;;;14.81;56.69
11114;BME280;5610;52.154;9.198;2023-04-28T08:06:07;100378.25;;;14.94;56.52
11114;BME280;5610;52.154;9.198;2023-04-28T08:08:53;100383.19;;;15.30;56.57
11114;BME280;5610;52.154;9.198;2023-04-28T08:11:38;100379.66;;;15.30;56.73
11114;BME280;5610;52.154;9.198;2023-04-28T08:14:24;100371.84;;;15.27;56.81
11114;BME280;5610;52.154;9.198;2023-04-28T08:17:09;100370.44;;;15.02;56.28
11114;BME280;5610;52.154;9.198;2023-04-28T08:19:56;100373.53;;;15.49;56.65
11114;BME280;5610;52.154;9.198;2023-04-28T08:22:41;100372.38;;;15.42;56.74
11114;BME280;5610;52.154;9.198;2023-04-28T08:25:26;100376.66;;;15.44;57.67
11114;BME280;5610;52.154;9.198;2023-04-28T08:28:12;100368.31;;;15.47;57.44
11114;BME280;5610;52.154;9.198;2023-04-28T08:30:57;100374.03;;;15.12;56.99
11114;BME280;5610;52.154;9.198;2023-04-28T08:33:42;100376.97;;;15.30;57.24
11114;BME280;5610;52.154;9.198;2023-04-28T08:36:32;100364.47;;;15.40;57.62
11114;BME280;5610;52.154;9.198;2023-04-28T08:39:18;100372.50;;;15.40;57.17
11114;BME280;5610;52.154;9.198;2023-04-28T08:42:05;100372.31;;;15.53;57.54
11114;BME280;5610;52.154;9.198;2023-04-28T08:44:52;100369.88;;;15.50;57.59
11114;BME280;5610;52.154;9.198;2023-04-28T08:47:42;100369.69;;;15.42;58.10
11114;BME280;5610;52.154;9.198;2023-04-28T08:50:30;100356.69;;;15.37;58.21
11114;BME280;5610;52.154;9.198;2023-04-28T08:53:22;100355.44;;;15.62;58.24
11114;BME280;5610;52.154;9.198;2023-04-28T08:56:09;100346.88;;;15.78;57.63
11114;BME280;5610;52.154;9.198;2023-04-28T08:58:57;100340.28;;;15.91;58.46
11114;BME280;5610;52.154;9.198;2023-04-28T09:01:47;100345.16;;;16.07;58.12
11114;BME280;5610;52.154;9.198;2023-04-28T09:04:32;100340.34;;;16.20;57.60
11114;BME280;5610;52.154;9.198;2023-04-28T09:07:17;100327.09;;;16.29;57.12
11114;BME280;5610;52.154;9.198;2023-04-28T09:10:18;100331.22;;;16.52;57.17
11114;BME280;5610;52.154;9.198;2023-04-28T09:13:04;100333.63;;;16.45;56.08
11114;BME280;5610;52.154;9.198;2023-04-28T09:15:49;100329.38;;;16.62;55.84
11114;BME280;5610;52.154;9.198;2023-04-28T09:18:34;100328.69;;;16.51;55.65
11114;BME280;5610;52.154;9.198;2023-04-28T09:21:19;100329.53;;;16.61;56.14
11114;BME280;5610;52.154;9.198;2023-04-28T09:24:05;100336.75;;;16.51;56.05
11114;BME280;5610;52.154;9.198;2023-04-28T09:26:52;100339.69;;;16.38;57.53
11114;BME280;5610;52.154;9.198;2023-04-28T09:29:37;100339.50;;;16.20;55.85
11114;BME280;5610;52.154;9.198;2023-04-28T09:32:23;100337.59;;;15.91;57.16
11114;BME280;5610;52.154;9.198;2023-04-28T09:35:10;100339.28;;;15.92;57.89
11114;BME280;5610;52.154;9.198;2023-04-28T09:37:57;100332.84;;;15.64;58.55
11114;BME280;5610;52.154;9.198;2023-04-28T09:40:50;100341.41;;;15.58;58.28
11114;BME280;5610;52.154;9.198;2023-04-28T09:43:37;100346.53;;;15.61;58.66
11114;BME280;5610;52.154;9.198;2023-04-28T09:46:27;100350.69;;;15.54;59.64
11114;BME280;5610;52.154;9.198;2023-04-28T09:49:13;100351.31;;;15.37;60.11
11114;BME280;5610;52.154;9.198;2023-04-28T09:52:11;100344.44;;;15.23;60.92
11114;BME280;5610;52.154;9.198;2023-04-28T09:54:56;100341.00;;;15.00;61.40
11114;BME280;5610;52.154;9.198;2023-04-28T09:57:43;100333.91;;;14.90;61.82
11114;BME280;5610;52.154;9.198;2023-04-28T10:00:34;100340.06;;;15.01;61.48
11114;BME280;5610;52.154;9.198;2023-04-28T10:03:22;100342.53;;;15.14;62.01
11114;BME280;5610;52.154;9.198;2023-04-28T10:06:07;100335.97;;;15.28;61.88
11114;BME280;5610;52.154;9.198;2023-04-28T10:08:54;100332.19;;;15.30;63.29
11114;BME280;5610;52.154;9.198;2023-04-28T10:11:40;100337.34;;;15.43;63.05
11114;BME280;5610;52.154;9.198;2023-04-28T10:14:26;100335.97;;;15.49;63.34
11114;BME280;5610;52.154;9.198;2023-04-28T10:17:14;100332.88;;;15.53;63.34
11114;BME280;5610;52.154;9.198;2023-04-28T10:20:00;100328.94;;;15.57;63.81
11114;BME280;5610;52.154;9.198;2023-04-28T10:22:55;100325.63;;;15.44;63.74
11114;BME280;5610;52.154;9.198;2023-04-28T10:25:47;100316.00;;;15.62;64.10
11114;BME280;5610;52.154;9.198;2023-04-28T10:28:33;100314.88;;;15.65;63.33
11114;BME280;5610;52.154;9.198;2023-04-28T10:31:19;100307.44;;;15.57;63.89
11114;BME280;5610;52.154;9.198;2023-04-28T10:37:09;100290.03;;;15.73;64.34
11114;BME280;5610;52.154;9.198;2023-04-28T10:40:30;100293.75;;;15.91;64.81
11114;BME280;5610;52.154;9.198;2023-04-28T10:43:34;100290.88;;;16.23;64.46
11114;BME280;5610;52.154;9.198;2023-04-28T10:46:20;100284.66;;;16.52;64.38
11114;BME280;5610;52.154;9.198;2023-04-28T10:49:06;100285.06;;;16.47;63.92
11114;BME280;5610;52.154;9.198;2023-04-28T10:51:51;100286.63;;;16.59;66.47
11114;BME280;5610;52.154;9.198;2023-04-28T10:54:38;100272.91;;;16.82;67.52
11114;BME280;5610;52.154;9.198;2023-04-28T10:57:23;100274.03;;;16.89;68.65
11114;BME280;5610;52.154;9.198;2023-04-28T11:00:27;100273.31;;;16.96;68.46
11114;BME280;5610;52.154;9.198;2023-04-28T11:03:37;100273.91;;;16.90;70.16
11114;BME280;5610;52.154;9.198;2023-04-28T11:06:26;100271.91;;;16.83;69.67
11114;BME280;5610;52.154;9.198;2023-04-28T11:09:46;100267.38;;;16.35;71.71
11114;BME280;5610;52.154;9.198;2023-04-28T11:12:32;100272.28;;;16.01;69.94
11114;BME280;5610;52.154;9.198;2023-04-28T11:15:17;100273.16;;;16.20;69.77
11114;BME280;5610;52.154;9.198;2023-04-28T11:18:08;100269.78;;;16.47;68.23
11114;BME280;5610;52.154;9.198;2023-04-28T11:21:00;100270.78;;;16.46;68.46
11114;BME280;5610;52.154;9.198;2023-04-28T11:23:46;100269.34;;;16.62;67.53
11114;BME280;5610;52.154;9.198;2023-04-28T11:26:36;100275.44;;;16.54;68.63
11114;BME280;5610;52.154;9.198;2023-04-28T11:29:30;100277.44;;;16.42;68.82
11114;BME280;5610;52.154;9.198;2023-04-28T11:32:16;100274.88;;;16.41;70.16
11114;BME280;5610;52.154;9.198;2023-04-28T11:35:01;100281.81;;;16.53;71.56
11114;BME280;5610;52.154;9.198;2023-04-28T11:38:00;100275.59;;;16.43;70.22
11114;BME280;5610;52.154;9.198;2023-04-28T11:40:55;100275.19;;;16.57;71.56
11114;BME280;5610;52.154;9.198;2023-04-28T11:43:42;100270.78;;;16.66;72.28
11114;BME280;5610;52.154;9.198;2023-04-28T11:46:27;100271.50;;;16.87;71.36
11114;BME280;5610;52.154;9.198;2023-04-28T11:49:12;100275.47;;;16.64;72.72
11114;BME280;5610;52.154;9.198;2023-04-28T11:52:03;100267.94;;;16.67;72.81
11114;BME280;5610;52.154;9.198;2023-04-28T11:54:52;100269.94;;;16.75;77.32
11114;BME280;5610;52.154;9.198;2023-04-28T11:57:38;100262.72;;;16.75;74.18
11114;BME280;5610;52.154;9.198;2023-04-28T12:00:26;100268.38;;;16.43;74.94
11114;BME280;5610;52.154;9.198;2023-04-28T12:03:11;100263.41;;;16.39;78.31
11114;BME280;5610;52.154;9.198;2023-04-28T12:05:57;100252.38;;;16.61;78.48
11114;BME280;5610;52.154;9.198;2023-04-28T12:08:42;100244.16;;;16.63;78.68
11114;BME280;5610;52.154;9.198;2023-04-28T12:11:27;100241.06;;;16.77;77.73
11114;BME280;5610;52.154;9.198;2023-04-28T12:14:13;100243.72;;;16.96;77.03
11114;BME280;5610;52.154;9.198;2023-04-28T12:17:00;100254.50;;;17.34;74.74
11114;BME280;5610;52.154;9.198;2023-04-28T12:19:45;100250.63;;;17.55;74.25
11114;BME280;5610;52.154;9.198;2023-04-28T12:22:42;100240.97;;;17.90;73.96
11114;BME280;5610;52.154;9.198;2023-04-28T12:25:28;100239.38;;;18.15;72.26
11114;BME280;5610;52.154;9.198;2023-04-28T12:28:14;100232.13;;;18.16;70.65
11114;BME280;5610;52.154;9.198;2023-04-28T12:31:02;100234.91;;;18.42;68.42
11114;BME280;5610;52.154;9.198;2023-04-28T12:33:49;100235.97;;;18.66;67.37
11114;BME280;5610;52.154;9.198;2023-04-28T12:36:35;100227.03;;;18.66;66.76
11114;BME280;5610;52.154;9.198;2023-04-28T12:39:20;100222.81;;;19.41;65.52
11114;BME280;5610;52.154;9.198;2023-04-28T12:42:06;100219.53;;;20.22;62.81
11114;BME280;5610;52.154;9.198;2023-04-28T12:44:51;100215.38;;;21.57;57.71
11114;BME280;5610;52.154;9.198;2023-04-28T12:47:37;100219.75;;;22.28;53.98
11114;BME280;5610;52.154;9.198;2023-04-28T12:50:23;100222.50;;;22.43;51.84
11114;BME280;5610;52.154;9.198;2023-04-28T12:53:10;100209.97;;;23.47;51.16
11114;BME280;5610;52.154;9.198;2023-04-28T12:55:56;100209.97;;;24.13;48.90
11114;BME280;5610;52.154;9.198;2023-04-28T12:58:42;100207.25;;;25.33;46.90
11114;BME280;5610;52.154;9.198;2023-04-28T13:01:27;100210.22;;;25.79;45.62
11114;BME280;5610;52.154;9.198;2023-04-28T13:04:12;100199.88;;;24.99;46.22
11114;BME280;5610;52.154;9.198;2023-04-28T13:06:59;100208.38;;;24.61;46.87
11114;BME280;5610;52.154;9.198;2023-04-28T13:09:45;100206.78;;;23.73;48.11
11114;BME280;5610;52.154;9.198;2023-04-28T13:12:30;100206.97;;;23.27;50.02
11114;BME280;5610;52.154;9.198;2023-04-28T13:15:16;100208.56;;;23.07;50.05
11114;BME280;5610;52.154;9.198;2023-04-28T13:18:02;100207.41;;;22.63;51.48
11114;BME280;5610;52.154;9.198;2023-04-28T13:20:47;100207.13;;;22.58;52.06
11114;BME280;5610;52.154;9.198;2023-04-28T13:23:34;100196.28;;;22.04;54.00
11114;BME280;5610;52.154;9.198;2023-04-28T13:26:19;100187.97;;;22.14;53.80
11114;BME280;5610;52.154;9.198;2023-04-28T13:29:05;100186.25;;;21.82;54.82
11114;BME280;5610;52.154;9.198;2023-04-28T13:31:52;100186.91;;;21.53;56.35
11114;BME280;5610;52.154;9.198;2023-04-28T13:34:37;100184.59;;;21.33;57.24
11114;BME280;5610;52.154;9.198;2023-04-28T13:37:22;100187.44;;;20.76;59.02
11114;BME280;5610;52.154;9.198;2023-04-28T13:40:10;100193.66;;;20.36;59.68
11114;BME280;5610;52.154;9.198;2023-04-28T13:42:56;100191.22;;;19.76;62.02
11114;BME280;5610;52.154;9.198;2023-04-28T13:45:41;100189.41;;;19.51;64.16
11114;BME280;5610;52.154;9.198;2023-04-28T13:48:26;100192.88;;;19.01;66.62
11114;BME280;5610;52.154;9.198;2023-04-28T13:51:12;100183.34;;;18.88;68.51
11114;BME280;5610;52.154;9.198;2023-04-28T13:53:57;100174.03;;;18.83;71.04
11114;BME280;5610;52.154;9.198;2023-04-28T13:56:44;100177.31;;;18.94;72.06
11114;BME280;5610;52.154;9.198;2023-04-28T13:59:29;100167.47;;;19.11;70.72
11114;BME280;5610;52.154;9.198;2023-04-28T14:02:14;100173.50;;;19.39;70.58
11114;BME280;5610;52.154;9.198;2023-04-28T14:05:00;100166.69;;;19.61;68.43
11114;BME280;5610;52.154;9.198;2023-04-28T14:07:45;100164.88;;;19.94;67.90
11114;BME280;5610;52.154;9.198;2023-04-28T14:10:30;100160.19;;;19.96;66.89
11114;BME280;5610;52.154;9.198;2023-04-28T14:13:17;100153.78;;;19.55;68.20
11114;BME280;5610;52.154;9.198;2023-04-28T14:16:02;100150.91;;;20.72;63.32
11114;BME280;5610;52.154;9.198;2023-04-28T14:18:47;100138.13;;;20.97;63.25
11114;BME280;5610;52.154;9.198;2023-04-28T14:21:33;100134.50;;;20.66;63.51
11114;BME280;5610;52.154;9.198;2023-04-28T14:24:18;100127.91;;;20.11;65.65
11114;BME280;5610;52.154;9.198;2023-04-28T14:27:04;100125.97;;;19.71;68.66
11114;BME280;5610;52.154;9.198;2023-04-28T14:29:51;100123.69;;;19.42;69.51
11114;BME280;5610;52.154;9.198;2023-04-28T14:32:36;100124.47;;;19.26;70.14
11114;BME280;5610;52.154;9.198;2023-04-28T14:35:22;100122.41;;;19.12;72.89
11114;BME280;5610;52.154;9.198;2023-04-28T14:38:07;100117.63;;;18.72;73.46
11114;BME280;5610;52.154;9.198;2023-04-28T14:40:53;100113.09;;;18.80;75.40
11114;BME280;5610;52.154;9.198;2023-04-28T14:43:38;100109.59;;;18.88;76.83
11114;BME280;5610;52.154;9.198;2023-04-28T14:46:25;100119.75;;;18.94;76.59
11114;BME280;5610;52.154;9.198;2023-04-28T14:49:10;100115.06;;;18.96;78.54
11114;BME280;5610;52.154;9.198;2023-04-28T14:51:56;100108.44;;;18.64;78.90